createdAt,value
2022-12-13T00:01:20.832Z,1.40
2022-12-13T00:03:47.980Z,1.67
2022-12-13T00:06:15.054Z,2.57
2022-12-13T00:08:42.075Z,1.80
2022-12-13T00:11:12.682Z,1.40
2022-12-13T00:13:40.503Z,1.30
2022-12-13T00:16:10.621Z,1.63
2022-12-13T00:18:37.595Z,0.30
2022-12-13T00:21:09.712Z,0.70
2022-12-13T00:23:36.871Z,1.20
2022-12-13T00:26:08.300Z,1.33
2022-12-13T00:28:34.921Z,0.97
2022-12-13T00:31:26.139Z,2.50
2022-12-13T00:33:50.212Z,0.80
2022-12-13T00:36:17.441Z,1.07
2022-12-13T00:38:44.612Z,2.67
2022-12-13T00:41:17.207Z,0.57
2022-12-13T00:43:44.544Z,0.80
2022-12-13T00:46:19.746Z,0.83
2022-12-13T00:48:51.931Z,0.40
2022-12-13T00:51:19.404Z,0.60
2022-12-13T00:53:46.106Z,0.63
2022-12-13T00:56:15.582Z,1.10
2022-12-13T00:58:46.103Z,0.37
2022-12-13T01:01:18.759Z,0.60
2022-12-13T01:03:45.571Z,2.43
2022-12-13T01:06:26.195Z,2.00
2022-12-13T01:08:53.050Z,1.30
2022-12-13T01:11:20.140Z,1.10
2022-12-13T01:13:47.094Z,0.73
2022-12-13T01:16:14.133Z,1.30
2022-12-13T01:18:41.536Z,2.10
2022-12-13T01:21:12.982Z,1.40
2022-12-13T01:23:40.634Z,1.23
2022-12-13T01:26:09.904Z,0.67
2022-12-13T01:28:36.637Z,1.40
2022-12-13T01:31:06.669Z,0.63
2022-12-13T01:33:33.751Z,1.70
2022-12-13T01:36:02.443Z,0.90
2022-12-13T01:38:29.412Z,1.83
2022-12-13T01:40:59.714Z,1.10
2022-12-13T01:43:30.448Z,1.03
2022-12-13T01:45:57.090Z,1.87
2022-12-13T01:48:29.539Z,0.57
2022-12-13T01:51:02.047Z,0.97
2022-12-13T01:53:33.740Z,0.70
2022-12-13T01:56:09.164Z,0.87
2022-12-13T01:58:37.376Z,0.90
2022-12-13T02:01:05.047Z,0.87
2022-12-13T02:03:33.240Z,0.77
2022-12-13T02:06:12.223Z,1.13
2022-12-13T02:08:41.661Z,0.40
2022-12-13T02:11:10.137Z,2.10
2022-12-13T02:13:37.826Z,1.13
2022-12-13T02:16:29.170Z,0.60
2022-12-13T02:19:04.704Z,0.77
2022-12-13T02:21:49.821Z,1.27
2022-12-13T02:24:49.148Z,0.53
2022-12-13T02:27:31.184Z,0.57
2022-12-13T02:30:19.796Z,0.57
2022-12-13T02:33:04.655Z,0.73
2022-12-13T02:36:08.927Z,0.90
2022-12-13T02:38:50.419Z,0.40
2022-12-13T02:41:25.343Z,0.30
2022-12-13T02:44:22.512Z,0.53
2022-12-13T02:47:21.755Z,0.63
2022-12-13T02:49:52.552Z,0.73
2022-12-13T02:52:23.034Z,1.17
2022-12-13T02:54:49.865Z,1.13
2022-12-13T02:57:46.127Z,0.77
2022-12-13T03:00:16.816Z,0.57
2022-12-13T03:03:09.324Z,0.87
2022-12-13T03:06:17.135Z,0.67
2022-12-13T03:08:47.886Z,0.67
2022-12-13T03:11:16.628Z,1.30
2022-12-13T03:13:57.590Z,0.83
2022-12-13T03:16:34.670Z,0.53
2022-12-13T03:19:04.525Z,0.70
2022-12-13T03:21:47.401Z,0.50
2022-12-13T03:24:18.115Z,0.40
2022-12-13T03:26:45.321Z,0.93
2022-12-13T03:29:12.136Z,0.43
2022-12-13T03:31:38.882Z,1.03
2022-12-13T03:34:05.607Z,1.03
2022-12-13T03:36:32.946Z,0.10
2022-12-13T03:38:59.652Z,0.63
2022-12-13T03:41:31.942Z,0.50
2022-12-13T03:44:00.455Z,0.30
2022-12-13T03:46:27.083Z,0.50
2022-12-13T03:48:53.729Z,1.33
2022-12-13T03:51:20.408Z,0.87
2022-12-13T03:53:47.218Z,0.43
2022-12-13T03:56:14.063Z,1.07
2022-12-13T03:58:42.476Z,0.20
2022-12-13T04:01:12.367Z,0.67
2022-12-13T04:03:41.200Z,0.50
2022-12-13T04:06:09.287Z,0.43
2022-12-13T04:08:37.637Z,0.77
2022-12-13T04:11:23.722Z,0.73
2022-12-13T04:13:50.511Z,0.30
2022-12-13T04:16:17.256Z,0.63
2022-12-13T04:18:44.202Z,0.60
2022-12-13T04:21:10.997Z,0.43
2022-12-13T04:23:37.471Z,0.27
2022-12-13T04:26:04.066Z,0.87
2022-12-13T04:28:30.712Z,0.20
2022-12-13T04:30:57.376Z,0.43
2022-12-13T04:33:24.844Z,1.47
2022-12-13T04:35:51.868Z,0.30
2022-12-13T04:38:18.854Z,1.27
2022-12-13T04:40:45.833Z,0.50
2022-12-13T04:43:12.603Z,0.43
2022-12-13T04:45:39.376Z,0.87
2022-12-13T04:48:06.466Z,0.40
2022-12-13T04:50:33.590Z,0.83
2022-12-13T04:53:00.603Z,0.63
2022-12-13T04:55:27.303Z,0.63
2022-12-13T04:57:53.941Z,1.43
2022-12-13T05:00:22.521Z,0.60
2022-12-13T05:02:49.550Z,0.90
2022-12-13T05:05:16.499Z,0.70
2022-12-13T05:07:43.469Z,0.43
2022-12-13T05:10:12.027Z,1.17
2022-12-13T05:12:39.075Z,0.83
2022-12-13T05:15:06.397Z,1.17
2022-12-13T05:17:33.174Z,0.27
2022-12-13T05:19:59.880Z,0.67
2022-12-13T05:22:26.769Z,0.20
2022-12-13T05:24:53.444Z,0.40
2022-12-13T05:27:25.509Z,0.83
2022-12-13T05:30:03.584Z,0.93
2022-12-13T05:32:43.543Z,0.83
2022-12-13T05:35:11.724Z,1.17
2022-12-13T05:37:38.320Z,1.47
2022-12-13T05:40:05.629Z,0.93
2022-12-13T05:42:32.364Z,0.67
2022-12-13T05:44:58.930Z,0.23
2022-12-13T05:47:25.593Z,0.37
2022-12-13T05:49:52.345Z,0.83
2022-12-13T05:52:20.515Z,0.50
2022-12-13T05:54:47.247Z,1.67
2022-12-13T05:57:14.312Z,0.30
2022-12-13T05:59:41.039Z,1.50
2022-12-13T06:02:07.557Z,0.33
2022-12-13T06:04:34.280Z,0.30
2022-12-13T06:07:00.769Z,1.07
2022-12-13T06:09:27.374Z,0.40
2022-12-13T06:12:01.152Z,0.90
2022-12-13T06:14:28.682Z,1.43
2022-12-13T06:16:55.871Z,3.70
2022-12-13T06:19:23.517Z,0.37
2022-12-13T06:21:51.397Z,2.37
2022-12-13T06:24:19.702Z,0.50
2022-12-13T06:26:47.468Z,0.50
2022-12-13T06:29:23.234Z,0.70
2022-12-13T06:32:02.245Z,0.83
2022-12-13T06:34:32.462Z,1.20
2022-12-13T06:36:59.256Z,0.67
2022-12-13T06:39:38.922Z,0.10
2022-12-13T06:42:07.752Z,0.20
2022-12-13T06:44:34.838Z,0.33
2022-12-13T06:47:10.262Z,0.60
2022-12-13T06:49:39.420Z,0.40
2022-12-13T06:52:09.726Z,0.43
2022-12-13T06:54:36.326Z,0.63
2022-12-13T06:57:02.941Z,0.20
2022-12-13T06:59:29.623Z,0.20
2022-12-13T07:02:03.257Z,0.50
2022-12-13T07:04:31.588Z,0.97
2022-12-13T07:07:01.578Z,0.20
2022-12-13T07:09:31.002Z,1.13
2022-12-13T07:11:58.454Z,0.17
2022-12-13T07:14:25.047Z,0.20
2022-12-13T07:16:51.750Z,0.37
2022-12-13T07:19:23.924Z,0.13
2022-12-13T07:21:51.829Z,0.77
2022-12-13T07:24:18.700Z,1.37
2022-12-13T07:26:45.262Z,0.27
2022-12-13T07:29:11.938Z,0.83
2022-12-13T07:31:38.911Z,2.30
2022-12-13T07:34:05.742Z,0.13
2022-12-13T07:36:32.469Z,0.20
2022-12-13T07:38:59.035Z,1.40
2022-12-13T07:41:27.036Z,1.13
2022-12-13T07:43:55.586Z,0.93
2022-12-13T07:46:32.384Z,0.93
2022-12-13T07:49:02.137Z,1.30
2022-12-13T07:51:29.041Z,1.20
2022-12-13T07:53:55.655Z,0.47
2022-12-13T07:56:22.310Z,0.63
2022-12-13T07:58:48.958Z,1.30
2022-12-13T08:01:15.668Z,1.03
2022-12-13T08:03:42.307Z,0.90
2022-12-13T08:06:11.414Z,0.63
2022-12-13T08:08:38.804Z,1.23
2022-12-13T08:11:06.745Z,1.03
2022-12-13T08:13:34.554Z,0.93
2022-12-13T08:16:03.203Z,0.17
2022-12-13T08:18:31.760Z,0.30
2022-12-13T08:21:10.465Z,0.33
2022-12-13T08:23:50.744Z,0.80
2022-12-13T08:26:17.494Z,0.17
2022-12-13T08:28:44.182Z,0.60
2022-12-13T08:31:12.415Z,0.50
2022-12-13T08:33:40.485Z,0.50
2022-12-13T08:36:11.664Z,0.40
2022-12-13T08:38:38.679Z,0.60
2022-12-13T08:41:06.551Z,0.40
2022-12-13T08:43:33.257Z,0.93
2022-12-13T08:46:01.045Z,0.73
2022-12-13T08:48:28.671Z,0.53
2022-12-13T08:50:59.732Z,0.20
2022-12-13T08:53:28.936Z,0.87
2022-12-13T08:56:05.689Z,1.40
2022-12-13T08:58:32.336Z,0.97
2022-12-13T09:00:59.330Z,0.57
2022-12-13T09:03:26.007Z,1.23
2022-12-13T09:05:52.593Z,1.47
2022-12-13T09:08:23.891Z,1.23
2022-12-13T09:11:00.123Z,0.70
2022-12-13T09:13:33.153Z,1.03
2022-12-13T09:16:25.099Z,1.40
2022-12-13T09:18:55.476Z,1.30
2022-12-13T09:21:31.252Z,1.17
2022-12-13T09:24:01.353Z,1.33
2022-12-13T09:26:38.748Z,1.76
2022-12-13T09:29:10.878Z,2.07
2022-12-13T09:31:40.642Z,2.13
2022-12-13T09:34:08.609Z,2.00
2022-12-13T09:36:35.224Z,1.57
2022-12-13T09:39:01.780Z,2.73
2022-12-13T09:41:29.055Z,2.47
2022-12-13T09:44:03.178Z,3.13
2022-12-13T09:46:44.387Z,1.57
2022-12-13T09:49:22.863Z,2.67
2022-12-13T09:52:10.099Z,2.37
2022-12-13T09:54:47.775Z,2.47
2022-12-13T09:57:32.349Z,2.93
2022-12-13T10:00:08.461Z,2.60
2022-12-13T10:02:43.440Z,3.60
2022-12-13T10:05:22.734Z,3.40
2022-12-13T10:07:55.495Z,2.57
2022-12-13T10:10:22.456Z,2.90
2022-12-13T10:13:10.654Z,3.80
2022-12-13T10:15:41.766Z,2.50
2022-12-13T10:18:12.813Z,2.70
2022-12-13T10:20:39.366Z,2.40
2022-12-13T10:23:33.382Z,3.17
2022-12-13T10:26:02.830Z,3.57
2022-12-13T10:28:33.345Z,3.20
2022-12-13T10:31:01.926Z,2.93
2022-12-13T10:33:35.303Z,3.10
2022-12-13T10:36:05.159Z,2.63
2022-12-13T10:38:36.212Z,3.00
2022-12-13T10:41:03.498Z,2.50
2022-12-13T10:43:30.711Z,3.07
2022-12-13T10:46:00.446Z,2.90
2022-12-13T10:48:38.662Z,2.67
2022-12-13T10:51:09.846Z,3.20
2022-12-13T10:53:47.473Z,3.97
2022-12-13T10:56:22.790Z,3.47
2022-12-13T10:59:15.174Z,3.27
2022-12-13T11:01:44.729Z,3.17
2022-12-13T11:04:29.484Z,2.73
2022-12-13T11:06:58.646Z,2.60
2022-12-13T11:09:39.185Z,2.70
2022-12-13T11:12:18.899Z,3.00
2022-12-13T11:15:02.669Z,2.47
2022-12-13T11:17:31.900Z,3.27
2022-12-13T11:20:02.660Z,3.17
2022-12-13T11:22:37.592Z,1.93
2022-12-13T11:25:09.790Z,2.83
2022-12-13T11:27:55.149Z,2.53
2022-12-13T11:30:26.480Z,2.37
2022-12-13T11:33:16.888Z,4.00
2022-12-13T11:36:03.899Z,3.97
2022-12-13T11:38:47.618Z,2.13
2022-12-13T11:41:31.751Z,2.47
2022-12-13T11:44:09.888Z,1.43
2022-12-13T11:46:45.382Z,2.70
2022-12-13T11:49:32.448Z,2.80
2022-12-13T11:52:21.517Z,2.40
2022-12-13T11:54:57.569Z,2.50
2022-12-13T11:57:45.330Z,2.93
2022-12-13T12:00:35.545Z,1.43
2022-12-13T12:03:21.638Z,1.70
2022-12-13T12:05:57.244Z,1.90
2022-12-13T12:08:48.041Z,2.80
2022-12-13T12:11:35.350Z,2.37
2022-12-13T12:14:13.047Z,1.43
2022-12-13T12:16:59.118Z,1.80
2022-12-13T12:19:31.685Z,2.80
2022-12-13T12:22:15.413Z,3.20
2022-12-13T12:24:45.395Z,4.80
2022-12-13T12:27:50.399Z,2.90
2022-12-13T12:30:23.516Z,6.13
2022-12-13T12:33:17.964Z,5.47
2022-12-13T12:36:12.140Z,3.33
2022-12-13T12:39:02.055Z,2.03
2022-12-13T12:41:48.468Z,2.03
2022-12-13T12:44:37.010Z,3.20
2022-12-13T12:48:08.924Z,2.43
2022-12-13T12:50:35.119Z,2.43
2022-12-13T12:53:50.308Z,2.53
2022-12-13T12:56:35.382Z,2.73
2022-12-13T12:59:27.335Z,3.00
2022-12-13T13:01:53.964Z,3.00
2022-12-13T13:04:27.402Z,3.57
2022-12-13T13:07:23.367Z,2.63
2022-12-13T13:09:54.878Z,3.47
2022-12-13T13:12:29.335Z,2.23
2022-12-13T13:14:57.960Z,2.03
2022-12-13T13:17:24.643Z,2.27
2022-12-13T13:20:13.979Z,3.17
2022-12-13T13:22:44.252Z,2.73
2022-12-13T13:25:35.180Z,2.10
2022-12-13T13:28:13.527Z,1.77
2022-12-13T13:31:08.317Z,2.57
2022-12-13T13:34:21.255Z,3.97
2022-12-13T13:36:48.060Z,2.50
2022-12-13T13:39:34.186Z,2.60
2022-12-13T13:42:21.725Z,1.47
2022-12-13T13:44:48.426Z,3.63
2022-12-13T13:47:21.010Z,2.30
2022-12-13T13:50:13.507Z,2.57
2022-12-13T13:52:52.258Z,2.33
2022-12-13T13:55:24.952Z,2.63
2022-12-13T13:58:21.926Z,2.73
2022-12-13T14:01:10.500Z,2.60
2022-12-13T14:03:48.964Z,2.17
2022-12-13T14:06:24.502Z,2.43
2022-12-13T14:09:22.846Z,3.33
2022-12-13T14:12:17.736Z,1.80
2022-12-13T14:15:22.188Z,2.43
2022-12-13T14:18:04.015Z,2.07
2022-12-13T14:21:06.237Z,2.03
2022-12-13T14:23:57.567Z,2.17
2022-12-13T14:26:38.406Z,3.17
2022-12-13T14:29:14.568Z,2.20
2022-12-13T14:31:47.175Z,1.83
2022-12-13T14:34:24.807Z,2.13
2022-12-13T14:36:57.627Z,2.77
2022-12-13T14:39:29.623Z,3.10
2022-12-13T14:41:59.157Z,3.00
2022-12-13T14:44:36.248Z,2.47
2022-12-13T14:47:08.186Z,2.23
2022-12-13T14:49:39.113Z,2.10
2022-12-13T14:52:07.154Z,2.43
2022-12-13T14:54:51.808Z,3.00
2022-12-13T14:57:27.307Z,2.73
2022-12-13T14:59:56.579Z,2.00
2022-12-13T15:02:30.993Z,1.53
2022-12-13T15:05:03.993Z,2.17
2022-12-13T15:07:35.910Z,1.97
2022-12-13T15:10:05.054Z,1.97
2022-12-13T15:12:32.508Z,1.83
2022-12-13T15:15:02.716Z,1.97
2022-12-13T15:17:34.145Z,3.10
2022-12-13T15:20:01.914Z,2.17
2022-12-13T15:22:29.815Z,2.70
2022-12-13T15:24:58.120Z,1.50
2022-12-13T15:27:25.844Z,2.20
2022-12-13T15:29:54.476Z,1.20
2022-12-13T15:32:25.441Z,1.33
2022-12-13T15:34:52.393Z,1.70
2022-12-13T15:37:31.476Z,1.63
2022-12-13T15:40:06.071Z,1.17
2022-12-13T15:42:35.954Z,1.77
2022-12-13T15:45:17.539Z,1.87
2022-12-13T15:47:47.071Z,2.13
2022-12-13T15:50:31.293Z,2.23
2022-12-13T15:53:17.772Z,3.50
2022-12-13T15:55:44.691Z,1.97
2022-12-13T15:58:35.529Z,1.37
2022-12-13T16:01:05.966Z,2.67
2022-12-13T16:03:44.764Z,1.30
2022-12-13T16:06:18.633Z,2.73
2022-12-13T16:08:50.186Z,1.57
2022-12-13T16:11:36.553Z,1.73
2022-12-13T16:14:31.764Z,1.20
2022-12-13T16:17:20.827Z,1.47
2022-12-13T16:19:47.535Z,1.40
2022-12-13T16:22:14.388Z,1.60
2022-12-13T16:24:41.078Z,3.10
2022-12-13T16:27:11.690Z,2.03
2022-12-13T16:29:38.589Z,1.20
2022-12-13T16:32:08.070Z,0.90
2022-12-13T16:34:35.592Z,2.40
2022-12-13T16:37:02.368Z,1.87
2022-12-13T16:39:35.471Z,0.33
2022-12-13T16:42:02.181Z,0.67
2022-12-13T16:44:37.890Z,1.40
2022-12-13T16:47:13.210Z,2.87
2022-12-13T16:49:46.162Z,0.80
2022-12-13T16:52:12.833Z,1.40
2022-12-13T16:54:39.563Z,0.60
2022-12-13T16:57:06.204Z,1.87
2022-12-13T16:59:33.278Z,1.40
2022-12-13T17:02:00.040Z,0.93
2022-12-13T17:04:29.677Z,1.50
2022-12-13T17:06:56.742Z,1.93
2022-12-13T17:09:25.131Z,2.17
2022-12-13T17:11:51.957Z,1.07
2022-12-13T17:14:18.538Z,1.53
2022-12-13T17:16:45.360Z,0.60
2022-12-13T17:19:14.708Z,1.30
2022-12-13T17:21:41.309Z,2.03
2022-12-13T17:24:08.642Z,1.07
2022-12-13T17:26:35.341Z,0.90
2022-12-13T17:29:02.018Z,0.37
2022-12-13T17:31:35.217Z,1.40
2022-12-13T17:34:02.913Z,0.67
2022-12-13T17:36:31.690Z,0.73
2022-12-13T17:38:58.593Z,0.73
2022-12-13T17:41:25.292Z,1.00
2022-12-13T17:43:52.035Z,1.07
2022-12-13T17:46:19.554Z,1.17
2022-12-13T17:48:54.485Z,0.50
2022-12-13T17:51:21.052Z,1.07
2022-12-13T17:53:47.741Z,1.93
2022-12-13T17:56:17.724Z,1.03
2022-12-13T17:58:45.120Z,0.90
2022-12-13T18:01:24.129Z,0.30
2022-12-13T18:03:55.962Z,2.40
2022-12-13T18:06:24.526Z,1.07
2022-12-13T18:08:51.276Z,0.63
2022-12-13T18:11:35.371Z,0.43
2022-12-13T18:14:03.616Z,0.73
2022-12-13T18:16:36.525Z,2.30
2022-12-13T18:19:06.240Z,1.17
2022-12-13T18:21:33.779Z,1.90
2022-12-13T18:24:00.785Z,1.70
2022-12-13T18:26:27.420Z,0.50
2022-12-13T18:28:54.094Z,1.67
2022-12-13T18:31:23.664Z,0.50
2022-12-13T18:33:52.701Z,0.47
2022-12-13T18:36:20.999Z,1.20
2022-12-13T18:38:49.323Z,1.10
2022-12-13T18:41:18.957Z,1.30
2022-12-13T18:43:46.278Z,2.63
2022-12-13T18:46:15.047Z,0.73
2022-12-13T18:48:42.273Z,0.70
2022-12-13T18:51:10.653Z,1.00
2022-12-13T18:53:38.572Z,1.20
2022-12-13T18:56:17.750Z,1.40
2022-12-13T18:58:45.252Z,1.57
2022-12-13T19:01:13.117Z,1.50
2022-12-13T19:03:40.332Z,1.37
2022-12-13T19:06:07.820Z,1.33
2022-12-13T19:08:36.629Z,1.00
2022-12-13T19:11:03.996Z,2.10
2022-12-13T19:13:32.001Z,1.53
2022-12-13T19:16:05.839Z,2.07
2022-12-13T19:18:33.197Z,1.33
2022-12-13T19:20:59.749Z,0.90
2022-12-13T19:23:26.812Z,2.70
2022-12-13T19:25:53.790Z,0.50
2022-12-13T19:28:20.512Z,2.07
2022-12-13T19:30:48.026Z,1.73
2022-12-13T19:33:15.573Z,1.03
2022-12-13T19:35:45.364Z,1.07
2022-12-13T19:38:12.406Z,1.23
2022-12-13T19:40:40.879Z,1.77
2022-12-13T19:43:07.618Z,1.00
2022-12-13T19:45:34.464Z,1.20
2022-12-13T19:48:01.202Z,3.00
2022-12-13T19:50:29.611Z,2.37
2022-12-13T19:52:56.751Z,0.70
2022-12-13T19:55:23.429Z,0.50
2022-12-13T19:57:50.181Z,2.17
2022-12-13T20:00:17.419Z,2.77
2022-12-13T20:02:44.174Z,1.87
2022-12-13T20:05:10.989Z,0.97
2022-12-13T20:07:37.727Z,1.27
2022-12-13T20:10:05.959Z,1.57
2022-12-13T20:12:38.799Z,0.80
2022-12-13T20:15:06.532Z,1.20
2022-12-13T20:17:33.265Z,1.93
2022-12-13T20:19:59.974Z,0.87
2022-12-13T20:22:26.692Z,0.90
2022-12-13T20:24:53.355Z,1.63
2022-12-13T20:27:20.088Z,1.53
2022-12-13T20:29:49.049Z,0.97
2022-12-13T20:32:16.308Z,2.57
2022-12-13T20:34:43.150Z,1.23
2022-12-13T20:37:09.837Z,2.83
2022-12-13T20:39:36.610Z,1.57
2022-12-13T20:42:03.325Z,2.23
2022-12-13T20:44:30.050Z,0.87
2022-12-13T20:46:56.838Z,1.40
2022-12-13T20:49:23.509Z,2.23
2022-12-13T20:51:50.701Z,0.30
2022-12-13T20:54:17.328Z,1.57
2022-12-13T20:56:44.007Z,0.80
2022-12-13T20:59:14.048Z,2.20
2022-12-13T21:01:42.081Z,0.63
2022-12-13T21:04:10.482Z,1.43
2022-12-13T21:06:40.757Z,2.63
2022-12-13T21:09:08.934Z,1.40
2022-12-13T21:11:36.818Z,1.57
2022-12-13T21:14:22.469Z,0.93
2022-12-13T21:16:53.188Z,1.57
2022-12-13T21:19:25.996Z,1.63
2022-12-13T21:21:54.464Z,2.30
2022-12-13T21:24:22.955Z,1.40
2022-12-13T21:26:51.350Z,1.77
2022-12-13T21:29:18.874Z,0.80
2022-12-13T21:31:49.208Z,0.93
2022-12-13T21:34:17.120Z,1.37
2022-12-13T21:36:46.187Z,2.00
2022-12-13T21:39:16.170Z,1.13
2022-12-13T21:41:43.349Z,1.60
2022-12-13T21:44:11.536Z,2.00
2022-12-13T21:49:24.742Z,0.60
2022-12-13T21:51:51.518Z,2.10
2022-12-13T21:54:18.830Z,3.07
2022-12-13T21:57:04.047Z,2.57
2022-12-13T21:59:31.055Z,1.97
2022-12-13T22:02:18.514Z,2.47
2022-12-13T22:04:50.318Z,1.90
2022-12-13T22:07:18.696Z,2.53
2022-12-13T22:09:46.521Z,0.70
2022-12-13T22:12:25.005Z,3.17
2022-12-13T22:14:53.053Z,1.33
2022-12-13T22:17:26.956Z,1.83
2022-12-13T22:19:58.556Z,0.87
2022-12-13T22:22:25.563Z,1.77
2022-12-13T22:24:53.860Z,1.93
2022-12-13T22:27:24.369Z,1.73
2022-12-13T22:29:57.338Z,2.53
2022-12-13T22:32:27.254Z,1.53
2022-12-13T22:34:54.381Z,1.83
2022-12-13T22:37:21.565Z,1.60
2022-12-13T22:39:48.507Z,2.20
2022-12-13T22:42:15.695Z,1.03
2022-12-13T22:44:42.452Z,1.47
2022-12-13T22:47:09.141Z,2.57
2022-12-13T22:49:35.817Z,1.33
2022-12-13T22:52:02.523Z,2.70
2022-12-13T22:54:29.265Z,3.37
2022-12-13T22:56:55.902Z,3.57
2022-12-13T22:59:22.560Z,2.33
2022-12-13T23:01:49.311Z,2.60
2022-12-13T23:04:15.933Z,3.43
2022-12-13T23:06:42.673Z,2.50
2022-12-13T23:09:12.684Z,1.43
2022-12-13T23:11:58.192Z,2.40
2022-12-13T23:14:31.050Z,2.97
2022-12-13T23:16:58.111Z,3.97
2022-12-13T23:19:41.651Z,1.83
2022-12-13T23:22:11.866Z,3.40
2022-12-13T23:24:38.479Z,2.73
2022-12-13T23:27:05.144Z,2.60
2022-12-13T23:29:31.860Z,2.87
2022-12-13T23:31:58.471Z,2.40
2022-12-13T23:34:25.142Z,3.40
2022-12-13T23:36:51.914Z,2.47
2022-12-13T23:39:18.512Z,1.87
2022-12-13T23:41:45.145Z,1.97
2022-12-13T23:44:11.892Z,3.30
2022-12-13T23:46:38.606Z,1.30
2022-12-13T23:49:06.603Z,3.17
2022-12-13T23:51:34.568Z,1.47
2022-12-13T23:54:01.470Z,1.33
2022-12-13T23:56:29.330Z,1.63
2022-12-13T23:58:56.119Z,1.43
